Latest Weather Observations for Georgetown Airport

IDQ60801

Issued at 9:02 pm EST Saturday 20 December 2014 (issued every 30 minutes, with the page automatically refreshed every 10 minutes)

About weather observations | Map of weather stations | Latest weather observations for QLD | Other Formats
Station Details ID: 030124 Name: GEORGETOWN AIRPORT Lat: -18.30 Lon: 143.53 Height: 301.77 m
Data from the previous 72 hours. | See also: Recent months at Georgetown Airport
Date/Time
EST
Temp
°C
App
Temp
°C
Dew
Point
Rel
Hum
%
Delta-T
°C
Wind Press
QNH
hPa
Press
MSL
hPa
Rain
since 9 am
mm
Dir
 
Spd
km/h
Gust
km/h
Spd
kts
Gust
kts
20/09:00pm 31.5 33.9 20.1 50 7.6 N 7 9 4 5 1009.0 1006.8 0.0
20/08:30pm 32.2 34.1 19.8 48 8.3 N 9 13 5 7 1008.9 - 0.0
20/08:00pm 31.2 35.5 21.1 55 6.8 CALM 0 0 0 0 1008.6 - 0.0
20/07:30pm 31.9 35.7 20.2 50 7.8 CALM 0 0 0 0 1008.2 - 0.0
20/07:00pm 32.5 36.4 20.4 49 8.1 CALM 0 0 0 0 1008.0 - 0.0
20/06:30pm 34.3 36.5 16.6 34 11.4 CALM 0 0 0 0 1007.8 - 0.0
20/06:00pm 35.6 37.9 16.8 32 12.2 CALM 0 0 0 0 1007.4 1005.2 0.0
20/05:30pm 35.2 36.4 16.0 31 12.3 W 4 7 2 4 1007.2 - 0.0
20/05:00pm 35.6 37.9 16.8 32 12.2 CALM 0 0 0 0 1007.1 - 0.0
20/04:30pm 35.7 37.7 18.7 36 11.3 ENE 6 9 3 5 1007.0 - 0.0
20/04:00pm 35.3 37.7 20.0 40 10.3 NNW 7 13 4 7 1007.1 - 0.0
20/03:30pm 35.5 38.9 20.2 40 10.4 N 2 9 1 5 1007.4 - 0.0
20/03:00pm 35.1 36.9 19.5 40 10.5 NNE 9 13 5 7 1008.2 1006.0 0.0
20/02:30pm 35.4 37.6 20.5 41 10.1 WSW 9 15 5 8 1008.6 - 0.0
20/02:00pm 34.8 36.8 20.0 42 10.0 NW 9 13 5 7 1009.0 - 0.0
20/01:30pm 34.2 36.7 19.1 41 10.0 E 4 11 2 6 1009.6 - 0.0
20/01:00pm 33.9 34.5 17.6 38 10.6 NW 11 19 6 10 1010.1 - 0.0
20/12:30pm 33.6 34.9 18.5 40 9.9 E 9 17 5 9 1010.6 - 0.0
20/12:00pm 32.3 32.6 17.0 40 9.8 NE 11 17 6 9 1011.2 1009.0 0.0
20/11:30am 32.0 33.3 17.5 42 9.4 NNE 7 13 4 7 1011.8 - 0.0
20/11:00am 31.8 33.1 18.4 45 8.8 E 9 19 5 10 1012.3 - 0.0
20/10:30am 30.6 31.2 17.7 46 8.3 N 11 20 6 11 1012.6 - 0.0
20/10:00am 30.5 30.9 18.2 47 8.0 NNE 13 20 7 11 1012.6 - 0.0
20/09:30am 30.0 31.0 19.4 53 7.0 NE 13 20 7 11 1012.5 - 0.0
20/09:00am 28.9 28.8 18.7 54 6.6 NE 17 20 9 11 1012.3 1010.1 0.0
20/08:30am 28.8 30.3 19.7 58 6.0 ENE 11 20 6 11 1012.5 - 0.0
20/08:00am 27.6 27.7 19.1 59 5.5 ENE 17 20 9 11 1012.2 - 0.0
20/07:30am 27.3 28.5 19.9 64 4.9 E 13 17 7 9 1012.0 - 0.0
20/07:00am 26.6 27.5 20.0 67 4.3 NE 15 20 8 11 1011.8 - 0.0
20/06:30am 25.6 27.3 20.2 72 3.6 NE 11 17 6 9 1011.8 - 0.0
20/06:00am 25.7 26.9 19.8 70 3.9 NE 13 19 7 10 1011.8 1009.6 0.0
20/05:30am 26.0 26.1 19.2 66 4.4 NE 17 20 9 11 1011.3 - 0.0
20/05:00am 26.1 26.2 19.2 65 4.5 ENE 17 22 9 12 1010.8 - 0.0
20/04:30am 26.3 26.7 19.9 68 4.2 ENE 17 22 9 12 1010.4 - 0.0
20/04:00am 26.8 27.7 20.9 70 3.9 ENE 17 22 9 12 1010.3 - 0.0
20/03:30am 27.4 28.8 21.0 68 4.3 ENE 15 28 8 15 1010.3 - 0.0
20/03:00am 27.0 29.9 21.7 73 3.6 E 9 11 5 6 1010.3 1008.1 0.0
20/02:30am 26.8 30.2 22.0 75 3.3 ESE 7 9 4 5 1010.0 - 0.0
20/02:00am 26.9 30.4 21.9 74 3.4 ESE 6 9 3 5 1010.1 - 0.0
20/01:30am 27.4 30.6 21.7 71 3.9 ESE 7 9 4 5 1010.4 - 0.0
20/01:00am 27.8 30.2 21.6 69 4.2 SE 11 17 6 9 1010.3 - 0.0
20/12:30am 28.1 30.1 21.6 68 4.4 ESE 13 19 7 10 1010.8 - 0.0
20/12:00am 28.0 31.6 22.0 70 4.1 E 6 7 3 4 1011.3 1009.1 0.0
 
Date/Time
EST
Temp
°C
App
Temp
°C
Dew
Point
Rel
Hum
%
Delta-T
°C
Wind Press
QNH
hPa
Press
MSL
hPa
Rain
since 9 am
mm
Dir
 
Spd
km/h
Gust
km/h
Spd
kts
Gust
kts
19/11:30pm 28.3 31.2 21.8 68 4.4 E 9 13 5 7 1011.5 - 0.0
19/11:00pm 29.2 31.1 21.4 63 5.3 E 13 28 7 15 1011.5 - 0.0
19/10:30pm 31.1 31.1 20.1 52 7.3 ESE 20 33 11 18 1011.4 - 0.0
19/10:00pm 32.0 34.2 20.3 50 7.9 SSW 9 13 5 7 1010.5 - 0.0
19/09:30pm 32.3 34.2 20.5 49 7.9 SSW 11 17 6 9 1010.2 - 0.0
19/09:00pm 31.7 34.7 21.2 53 7.1 SSW 7 9 4 5 1010.1 1007.9 0.0
19/08:30pm 31.7 35.0 21.5 54 7.0 SSW 6 9 3 5 1009.8 - 0.0
19/08:00pm 31.4 28.6 19.4 49 7.9 W 33 54 18 29 1009.4 - 0.0
19/07:52pm 31.2 28.0 19.5 49 7.8 W 35 54 19 29 1009.3 - 0.0
19/07:50pm 32.6 30.7 20.2 48 8.3 WSW 30 43 16 23 1009.4 - 0.0
19/07:30pm 33.5 36.0 21.0 48 8.5 SW 9 11 5 6 1009.1 - 0.0
19/07:00pm 34.1 36.0 20.5 45 9.2 SSW 11 13 6 7 1008.6 - 0.0
19/06:30pm 34.4 37.3 21.1 45 9.1 S 7 13 4 7 1008.3 - 0.0
19/06:00pm 35.3 36.0 20.4 41 10.1 SW 17 28 9 15 1008.1 1005.9 0.0
19/05:30pm 36.5 36.5 19.0 35 11.7 SW 17 22 9 12 1007.8 - 0.0
19/05:00pm 36.6 37.2 19.5 36 11.5 W 15 24 8 13 1007.6 - 0.0
19/04:30pm 36.7 37.3 18.7 34 12.0 WSW 13 26 7 14 1007.6 - 0.0
19/04:00pm 36.6 35.7 19.1 35 11.7 W 22 30 12 16 1007.8 - 0.0
19/03:30pm 36.7 36.6 18.7 34 12.0 WSW 17 26 9 14 1008.1 - 0.0
19/03:00pm 35.8 36.5 18.8 36 11.3 NW 13 20 7 11 1008.5 1006.3 0.0
19/02:30pm 36.0 36.4 19.0 36 11.3 SW 15 22 8 12 1008.9 - 0.0
19/02:00pm 34.8 36.2 19.6 40 10.2 N 11 19 6 10 1009.3 - 0.0
19/01:30pm 34.8 37.7 21.1 44 9.4 NNE 7 15 4 8 1010.0 - 0.0
19/01:00pm 34.4 37.4 20.0 42 9.7 E 4 13 2 7 1010.5 - 0.0
19/12:30pm 33.8 36.7 20.6 46 8.9 NW 6 13 3 7 1011.2 - 0.0
19/12:00pm 33.2 36.3 21.0 48 8.3 ESE 6 11 3 6 1011.7 1009.5 0.0
19/11:30am 32.1 34.5 19.7 48 8.3 NNE 6 13 3 7 1012.2 - 0.0
19/11:00am 31.5 33.6 20.1 50 7.6 NNE 9 17 5 9 1012.6 - 0.0
19/10:30am 31.4 33.7 20.7 53 7.2 NE 9 13 5 7 1012.6 - 0.0
19/10:00am 30.9 33.3 20.8 55 6.8 NE 9 24 5 13 1012.8 - 0.0
19/09:30am 30.2 31.3 20.4 55 6.6 NE 15 24 8 13 1012.8 - 0.0
19/09:00am 29.7 31.1 21.1 60 5.8 ENE 15 22 8 12 1012.7 1010.5 47.4
19/08:30am 29.1 30.4 20.8 61 5.6 ENE 15 19 8 10 1012.9 - 47.4
19/08:00am 28.5 30.1 20.8 63 5.2 NE 13 20 7 11 1012.5 - 47.4
19/07:30am 27.1 29.7 20.4 66 4.4 NE 7 11 4 6 1012.5 - 47.2
19/07:00am 26.2 28.8 20.5 71 3.8 NE 7 9 4 5 1012.2 - 47.2
19/06:30am 25.3 28.4 21.4 79 2.6 NE 7 11 4 6 1011.6 - 47.2
19/06:00am 24.4 28.5 21.5 84 1.9 ENE 2 6 1 3 1011.2 - 47.2
19/05:30am 24.6 27.8 21.7 84 1.9 ENE 7 7 4 4 1010.8 - 47.2
19/05:00am 24.6 28.4 21.7 84 1.9 ENE 4 7 2 4 1010.4 - 47.2
19/04:30am 24.8 27.5 21.3 81 2.3 ENE 9 13 5 7 1010.1 - 47.2
19/04:00am 24.6 26.4 21.9 85 1.8 NE 15 24 8 13 1009.8 - 47.2
19/03:30am 24.7 27.5 21.6 83 2.1 ENE 9 13 5 7 1010.1 - 47.2
19/03:00am 24.8 27.6 21.5 82 2.2 ENE 9 13 5 7 1010.4 1008.2 47.2
19/02:30am 24.7 27.5 21.6 83 2.1 SSE 9 15 5 8 1010.2 - 47.2
19/02:00am 24.8 28.3 22.1 85 1.8 S 7 11 4 6 1010.6 - 47.2
19/01:30am 25.0 29.9 22.3 85 1.8 CALM 0 0 0 0 1011.4 - 47.2
19/01:00am 25.3 28.8 22.2 83 2.1 W 7 11 4 6 1011.4 - 47.2
19/12:30am 25.1 28.8 22.2 84 2.0 ESE 6 11 3 6 1011.1 - 47.2
19/12:00am 24.9 29.4 23.0 89 1.3 S 4 7 2 4 1011.2 1009.0 47.2
 
Date/Time
EST
Temp
°C
App
Temp
°C
Dew
Point
Rel
Hum
%
Delta-T
°C
Wind Press
QNH
hPa
Press
MSL
hPa
Rain
since 9 am
mm
Dir
 
Spd
km/h
Gust
km/h
Spd
kts
Gust
kts
18/11:30pm 24.6 26.9 22.8 90 1.2 ESE 15 24 8 13 1010.8 - 47.2
18/11:00pm 24.4 26.1 23.0 92 1.0 E 19 24 10 13 1012.6 - 47.2
18/10:30pm 24.5 26.9 22.9 91 1.1 S 15 20 8 11 1013.7 - 46.8
18/10:00pm 25.1 28.0 23.2 89 1.3 S 13 20 7 11 1014.7 - 45.8
18/09:30pm 24.7 27.8 23.5 93 0.8 SSW 13 19 7 10 1014.7 - 45.6
18/09:00pm 24.1 28.0 23.6 97 0.3 S 9 15 5 8 1014.8 1012.6 45.4
18/08:30pm 23.7 27.5 23.5 99 0.1 SE 9 15 5 8 1014.0 - 43.8
18/08:00pm 23.6 24.4 23.1 97 0.3 SSE 24 37 13 20 1013.1 - 35.2
18/07:34pm 23.0 22.0 22.7 98 0.2 SE 32 56 17 30 1012.7 - 17.4
18/07:30pm 23.1 22.9 22.8 98 0.2 SE 28 41 15 22 1012.8 - 14.4
18/07:00pm 24.7 24.3 23.1 91 1.1 SSE 30 50 16 27 1011.8 - 0.2
18/06:44pm 26.0 25.2 21.7 77 2.9 SSE 28 46 15 25 1011.4 - 0.0
18/06:30pm 30.1 29.5 19.8 54 6.8 SSE 22 35 12 19 1010.0 - 0.0
18/06:28pm 31.8 31.0 20.1 50 7.8 SSE 24 35 13 19 1009.7 - 0.0
18/06:00pm 33.4 33.1 19.5 44 9.3 WNW 20 28 11 15 1007.7 1005.4 0.0
18/05:30pm 34.4 32.6 20.4 44 9.5 WNW 30 39 16 21 1007.6 - 0.0
18/05:26pm 34.8 33.5 20.7 43 9.6 WNW 28 39 15 21 1007.3 - 0.0
18/05:00pm 37.0 38.0 19.4 35 11.8 NNW 13 17 7 9 1006.7 - 0.0
18/04:30pm 37.3 38.8 19.7 35 11.9 NW 11 19 6 10 1006.5 - 0.0
18/04:00pm 37.6 37.8 18.6 33 12.7 NW 15 22 8 12 1006.7 - 0.0
18/03:30pm 37.0 37.6 19.4 35 11.8 N 15 22 8 12 1006.9 - 0.0
18/03:00pm 37.6 40.0 20.8 37 11.5 WSW 9 17 5 9 1007.8 1005.5 0.0
18/02:30pm 37.0 38.4 20.3 37 11.4 SW 13 20 7 11 1008.7 - 0.0
18/02:00pm 36.0 37.6 20.7 41 10.4 WSW 13 19 7 10 1009.4 - 0.0
18/01:30pm 35.1 36.8 20.2 41 10.1 WNW 11 20 6 11 1009.5 - 0.0
18/01:00pm 35.0 37.3 22.0 46 9.0 W 13 22 7 12 1009.8 - 0.0
18/12:30pm 34.5 36.1 21.5 46 8.9 WNW 15 24 8 13 1010.2 - 0.0
18/12:00pm 33.9 36.7 22.3 50 8.0 WNW 11 20 6 11 1010.7 1008.5 0.0
18/11:30am 33.1 35.7 21.9 51 7.7 N 11 17 6 9 1011.4 - 0.0
18/11:00am 31.9 34.4 21.7 54 7.0 NNE 11 17 6 9 1011.8 - 0.0
18/10:30am 31.5 33.9 22.2 57 6.4 NW 13 20 7 11 1012.3 - 0.0
18/10:00am 30.7 33.6 21.8 59 6.1 NNW 9 20 5 11 1012.5 - 0.0
18/09:30am 29.2 31.9 21.4 63 5.3 N 9 13 5 7 1012.4 - 0.0
18/09:00am 28.8 30.9 21.0 62 5.2 N 11 19 6 10 1012.2 1010.0 5.2
18/08:30am 28.4 31.0 21.9 68 4.4 N 11 15 6 8 1012.2 - 5.2
18/08:00am 27.5 30.8 21.8 71 3.9 N 7 11 4 6 1011.9 - 5.2
18/07:30am 27.0 30.5 22.2 75 3.3 NNE 7 9 4 5 1011.6 - 5.2
18/07:00am 26.7 30.0 22.5 78 2.9 N 9 11 5 6 1011.4 - 5.2
18/06:30am 26.3 29.8 22.8 81 2.4 N 9 13 5 7 1011.1 - 5.2
18/06:00am 26.2 29.6 22.7 81 2.4 NNE 9 11 5 6 1011.0 1008.7 5.2
18/05:30am 26.3 30.0 22.2 78 2.8 NNE 6 9 3 5 1010.8 - 5.2
18/05:00am 26.4 29.6 21.6 75 3.2 N 7 11 4 6 1010.4 - 5.2
18/04:30am 26.8 29.8 22.0 75 3.3 N 9 15 5 8 1009.9 - 5.2
18/04:00am 26.7 31.2 24.0 85 1.9 NNE 7 9 4 5 1009.6 - 5.2
18/03:30am 26.5 31.8 24.3 88 1.5 ENE 4 7 2 4 1009.2 - 5.2
18/03:00am 26.3 31.1 24.2 88 1.5 E 6 7 3 4 1009.1 1006.9 5.2
18/02:30am 26.2 30.5 24.2 89 1.4 NNE 9 13 5 7 1008.6 - 5.2
18/02:00am 26.0 31.4 23.9 88 1.5 SE 2 7 1 4 1008.7 - 5.2
18/01:30am 26.2 30.0 23.5 85 1.9 WNW 9 11 5 6 1008.9 - 5.2
18/01:00am 25.5 28.7 23.0 86 1.7 NNW 11 13 6 7 1009.3 - 5.2
18/12:30am 26.6 28.3 21.6 74 3.4 ENE 15 24 8 13 1010.7 - 2.0
18/12:00am 30.8 33.1 20.7 55 6.8 SSW 9 15 5 8 1010.7 1008.5 0.0
 
Date/Time
EST
Temp
°C
App
Temp
°C
Dew
Point
Rel
Hum
%
Delta-T
°C
Wind Press
QNH
hPa
Press
MSL
hPa
Rain
since 9 am
mm
Dir
 
Spd
km/h
Gust
km/h
Spd
kts
Gust
kts
17/11:30pm 30.8 33.6 20.4 54 7.0 E 6 9 3 5 1009.9 - 0.0
17/11:00pm 31.1 34.9 20.1 52 7.3 CALM 0 0 0 0 1009.7 - 0.0
17/10:30pm 31.3 33.3 19.9 50 7.6 WNW 9 15 5 8 1009.8 - 0.0
17/10:00pm 31.3 33.3 19.9 50 7.6 N 9 13 5 7 1009.5 - 0.0
17/09:30pm 31.4 33.3 19.7 49 7.8 SSE 9 15 5 8 1008.7 - 0.0

Other Formats:

Comma delimited format used in spreadsheet applications
http://www.bom.gov.au/fwo/IDQ60801/IDQ60801.94274.axf

JavaScript Object Notation format (JSON) in row-major order
http://www.bom.gov.au/fwo/IDQ60801/IDQ60801.94274.json